sensor_id;sensor_type;location;lat;lon;timestamp;P1;durP1;ratioP1;P2;durP2;ratioP2
51732;SDS011;39139;53.144;6.244;2023-05-15T00:01:20;54.42;;;33.30;;
51732;SDS011;39139;53.144;6.244;2023-05-15T00:03:46;50.50;;;32.78;;
51732;SDS011;39139;53.144;6.244;2023-05-15T00:06:12;52.17;;;33.47;;
51732;SDS011;39139;53.144;6.244;2023-05-15T00:08:38;56.17;;;34.22;;
51732;SDS011;39139;53.144;6.244;2023-05-15T00:11:04;54.97;;;33.63;;
51732;SDS011;39139;53.144;6.244;2023-05-15T00:13:29;56.05;;;34.22;;
51732;SDS011;39139;53.144;6.244;2023-05-15T00:15:55;56.15;;;34.92;;
51732;SDS011;39139;53.144;6.244;2023-05-15T00:18:21;56.10;;;34.70;;
51732;SDS011;39139;53.144;6.244;2023-05-15T00:20:47;50.97;;;33.17;;
51732;SDS011;39139;53.144;6.244;2023-05-15T00:23:12;53.83;;;34.00;;
51732;SDS011;39139;53.144;6.244;2023-05-15T00:25:38;51.78;;;32.88;;
51732;SDS011;39139;53.144;6.244;2023-05-15T00:28:04;49.10;;;32.92;;
51732;SDS011;39139;53.144;6.244;2023-05-15T00:30:29;53.40;;;32.33;;
51732;SDS011;39139;53.144;6.244;2023-05-15T00:32:55;51.72;;;32.30;;
51732;SDS011;39139;53.144;6.244;2023-05-15T00:35:21;47.92;;;32.28;;
51732;SDS011;39139;53.144;6.244;2023-05-15T00:37:46;52.05;;;33.33;;
51732;SDS011;39139;53.144;6.244;2023-05-15T00:40:14;53.55;;;34.17;;
51732;SDS011;39139;53.144;6.244;2023-05-15T00:42:45;54.08;;;34.00;;
51732;SDS011;39139;53.144;6.244;2023-05-15T00:45:11;56.60;;;36.28;;
51732;SDS011;39139;53.144;6.244;2023-05-15T00:47:38;51.95;;;35.65;;
51732;SDS011;39139;53.144;6.244;2023-05-15T00:50:05;53.28;;;35.30;;
51732;SDS011;39139;53.144;6.244;2023-05-15T00:52:33;54.50;;;35.10;;
51732;SDS011;39139;53.144;6.244;2023-05-15T00:55:00;54.05;;;34.47;;
51732;SDS011;39139;53.144;6.244;2023-05-15T00:57:25;57.70;;;37.17;;
51732;SDS011;39139;53.144;6.244;2023-05-15T00:59:52;59.20;;;35.63;;
51732;SDS011;39139;53.144;6.244;2023-05-15T01:02:20;54.25;;;35.47;;
51732;SDS011;39139;53.144;6.244;2023-05-15T01:04:46;53.17;;;34.28;;
51732;SDS011;39139;53.144;6.244;2023-05-15T01:07:12;56.60;;;34.83;;
51732;SDS011;39139;53.144;6.244;2023-05-15T01:09:39;56.33;;;34.67;;
51732;SDS011;39139;53.144;6.244;2023-05-15T01:12:07;56.83;;;34.05;;
51732;SDS011;39139;53.144;6.244;2023-05-15T01:14:33;51.45;;;33.53;;
51732;SDS011;39139;53.144;6.244;2023-05-15T01:16:59;49.30;;;32.55;;
51732;SDS011;39139;53.144;6.244;2023-05-15T01:19:25;50.78;;;33.65;;
51732;SDS011;39139;53.144;6.244;2023-05-15T01:32:53;49.30;;;31.95;;
51732;SDS011;39139;53.144;6.244;2023-05-15T01:43:43;45.88;;;31.55;;
51732;SDS011;39139;53.144;6.244;2023-05-15T01:46:13;53.92;;;32.92;;
51732;SDS011;39139;53.144;6.244;2023-05-15T01:48:43;51.75;;;33.20;;
51732;SDS011;39139;53.144;6.244;2023-05-15T01:51:12;51.25;;;33.58;;
51732;SDS011;39139;53.144;6.244;2023-05-15T01:53:40;55.35;;;35.55;;
51732;SDS011;39139;53.144;6.244;2023-05-15T01:56:08;55.75;;;33.40;;
51732;SDS011;39139;53.144;6.244;2023-05-15T01:58:36;56.42;;;33.10;;
51732;SDS011;39139;53.144;6.244;2023-05-15T02:01:04;54.97;;;35.05;;
51732;SDS011;39139;53.144;6.244;2023-05-15T02:03:31;50.78;;;32.47;;
51732;SDS011;39139;53.144;6.244;2023-05-15T02:06:01;52.47;;;32.17;;
51732;SDS011;39139;53.144;6.244;2023-05-15T02:08:29;51.67;;;33.72;;
51732;SDS011;39139;53.144;6.244;2023-05-15T02:10:57;54.78;;;34.55;;
51732;SDS011;39139;53.144;6.244;2023-05-15T02:13:24;51.05;;;32.13;;
51732;SDS011;39139;53.144;6.244;2023-05-15T02:15:51;55.33;;;32.90;;
51732;SDS011;39139;53.144;6.244;2023-05-15T02:18:17;49.97;;;31.40;;
51732;SDS011;39139;53.144;6.244;2023-05-15T02:20:43;51.53;;;33.00;;
51732;SDS011;39139;53.144;6.244;2023-05-15T02:23:09;51.05;;;32.63;;
51732;SDS011;39139;53.144;6.244;2023-05-15T02:28:27;52.08;;;34.25;;
51732;SDS011;39139;53.144;6.244;2023-05-15T02:31:07;57.58;;;36.30;;
51732;SDS011;39139;53.144;6.244;2023-05-15T02:33:53;69.55;;;36.05;;
51732;SDS011;39139;53.144;6.244;2023-05-15T02:36:27;53.97;;;34.83;;
51732;SDS011;39139;53.144;6.244;2023-05-15T02:38:56;54.25;;;36.65;;
51732;SDS011;39139;53.144;6.244;2023-05-15T02:41:23;58.72;;;35.00;;
51732;SDS011;39139;53.144;6.244;2023-05-15T02:43:50;47.58;;;31.15;;
51732;SDS011;39139;53.144;6.244;2023-05-15T02:46:17;44.92;;;29.30;;
51732;SDS011;39139;53.144;6.244;2023-05-15T02:48:44;42.42;;;29.77;;
51732;SDS011;39139;53.144;6.244;2023-05-15T02:51:11;45.88;;;32.50;;
51732;SDS011;39139;53.144;6.244;2023-05-15T02:53:40;48.92;;;33.08;;
51732;SDS011;39139;53.144;6.244;2023-05-15T02:56:07;49.35;;;33.75;;
51732;SDS011;39139;53.144;6.244;2023-05-15T02:58:33;47.42;;;33.80;;
51732;SDS011;39139;53.144;6.244;2023-05-15T03:00:59;54.95;;;36.38;;
51732;SDS011;39139;53.144;6.244;2023-05-15T03:03:25;50.53;;;35.58;;
51732;SDS011;39139;53.144;6.244;2023-05-15T03:05:51;49.88;;;35.15;;
51732;SDS011;39139;53.144;6.244;2023-05-15T03:08:16;47.35;;;34.25;;
51732;SDS011;39139;53.144;6.244;2023-05-15T03:10:43;47.13;;;35.08;;
51732;SDS011;39139;53.144;6.244;2023-05-15T03:13:09;48.08;;;34.47;;
51732;SDS011;39139;53.144;6.244;2023-05-15T03:15:35;49.42;;;34.85;;
51732;SDS011;39139;53.144;6.244;2023-05-15T03:18:00;53.83;;;35.33;;
51732;SDS011;39139;53.144;6.244;2023-05-15T03:20:26;51.70;;;36.45;;
51732;SDS011;39139;53.144;6.244;2023-05-15T03:22:52;52.95;;;35.58;;
51732;SDS011;39139;53.144;6.244;2023-05-15T03:25:18;53.17;;;35.42;;
51732;SDS011;39139;53.144;6.244;2023-05-15T03:27:43;46.35;;;36.90;;
51732;SDS011;39139;53.144;6.244;2023-05-15T03:30:09;54.15;;;37.95;;
51732;SDS011;39139;53.144;6.244;2023-05-15T03:32:35;50.13;;;35.47;;
51732;SDS011;39139;53.144;6.244;2023-05-15T03:35:00;46.33;;;33.78;;
51732;SDS011;39139;53.144;6.244;2023-05-15T03:37:26;46.35;;;35.50;;
51732;SDS011;39139;53.144;6.244;2023-05-15T03:39:52;42.65;;;33.85;;
51732;SDS011;39139;53.144;6.244;2023-05-15T03:42:17;48.67;;;34.25;;
51732;SDS011;39139;53.144;6.244;2023-05-15T03:44:47;43.10;;;33.08;;
51732;SDS011;39139;53.144;6.244;2023-05-15T03:47:13;42.45;;;32.05;;
51732;SDS011;39139;53.144;6.244;2023-05-15T03:49:40;38.15;;;30.45;;
51732;SDS011;39139;53.144;6.244;2023-05-15T03:52:05;39.10;;;31.17;;
51732;SDS011;39139;53.144;6.244;2023-05-15T03:54:31;41.75;;;31.38;;
51732;SDS011;39139;53.144;6.244;2023-05-15T03:56:57;41.15;;;31.63;;
51732;SDS011;39139;53.144;6.244;2023-05-15T03:59:23;42.03;;;29.50;;
51732;SDS011;39139;53.144;6.244;2023-05-15T04:01:49;37.72;;;29.50;;
51732;SDS011;39139;53.144;6.244;2023-05-15T04:04:14;37.72;;;29.27;;
51732;SDS011;39139;53.144;6.244;2023-05-15T04:06:40;41.30;;;30.75;;
51732;SDS011;39139;53.144;6.244;2023-05-15T04:09:06;45.50;;;32.28;;
51732;SDS011;39139;53.144;6.244;2023-05-15T04:11:31;41.47;;;30.92;;
51732;SDS011;39139;53.144;6.244;2023-05-15T04:13:58;37.13;;;30.60;;
51732;SDS011;39139;53.144;6.244;2023-05-15T04:16:24;36.80;;;28.95;;
51732;SDS011;39139;53.144;6.244;2023-05-15T04:18:50;38.38;;;28.98;;
51732;SDS011;39139;53.144;6.244;2023-05-15T04:21:16;34.40;;;28.77;;
51732;SDS011;39139;53.144;6.244;2023-05-15T04:23:41;36.33;;;29.23;;
51732;SDS011;39139;53.144;6.244;2023-05-15T04:26:07;36.25;;;27.80;;
51732;SDS011;39139;53.144;6.244;2023-05-15T04:28:33;35.22;;;27.05;;
51732;SDS011;39139;53.144;6.244;2023-05-15T04:30:59;31.08;;;25.35;;
51732;SDS011;39139;53.144;6.244;2023-05-15T04:33:25;35.13;;;26.20;;
51732;SDS011;39139;53.144;6.244;2023-05-15T04:35:51;32.25;;;24.98;;
51732;SDS011;39139;53.144;6.244;2023-05-15T04:38:17;32.08;;;24.52;;
51732;SDS011;39139;53.144;6.244;2023-05-15T04:40:44;27.88;;;24.27;;
51732;SDS011;39139;53.144;6.244;2023-05-15T04:43:10;28.80;;;24.67;;
51732;SDS011;39139;53.144;6.244;2023-05-15T04:45:35;30.90;;;25.60;;
51732;SDS011;39139;53.144;6.244;2023-05-15T04:48:01;29.90;;;24.38;;
51732;SDS011;39139;53.144;6.244;2023-05-15T04:50:27;27.10;;;24.30;;
51732;SDS011;39139;53.144;6.244;2023-05-15T04:52:53;30.10;;;24.20;;
51732;SDS011;39139;53.144;6.244;2023-05-15T04:55:18;28.38;;;25.40;;
51732;SDS011;39139;53.144;6.244;2023-05-15T04:57:47;30.95;;;24.33;;
51732;SDS011;39139;53.144;6.244;2023-05-15T05:00:13;27.27;;;24.17;;
51732;SDS011;39139;53.144;6.244;2023-05-15T05:02:39;28.33;;;23.58;;
51732;SDS011;39139;53.144;6.244;2023-05-15T05:05:07;27.05;;;24.20;;
51732;SDS011;39139;53.144;6.244;2023-05-15T05:07:34;28.83;;;25.08;;
51732;SDS011;39139;53.144;6.244;2023-05-15T05:09:59;29.25;;;25.42;;
51732;SDS011;39139;53.144;6.244;2023-05-15T05:12:25;28.42;;;25.02;;
51732;SDS011;39139;53.144;6.244;2023-05-15T05:14:51;29.83;;;25.98;;
51732;SDS011;39139;53.144;6.244;2023-05-15T05:17:17;32.63;;;26.77;;
51732;SDS011;39139;53.144;6.244;2023-05-15T05:19:43;29.42;;;25.00;;
51732;SDS011;39139;53.144;6.244;2023-05-15T05:22:09;33.03;;;26.83;;
51732;SDS011;39139;53.144;6.244;2023-05-15T05:24:35;33.33;;;28.67;;
51732;SDS011;39139;53.144;6.244;2023-05-15T05:27:01;37.63;;;30.77;;
51732;SDS011;39139;53.144;6.244;2023-05-15T05:29:30;37.33;;;32.58;;
51732;SDS011;39139;53.144;6.244;2023-05-15T05:31:56;36.35;;;30.83;;
51732;SDS011;39139;53.144;6.244;2023-05-15T05:34:22;38.40;;;31.45;;
51732;SDS011;39139;53.144;6.244;2023-05-15T05:36:48;37.05;;;32.00;;
51732;SDS011;39139;53.144;6.244;2023-05-15T05:39:14;37.67;;;31.88;;
51732;SDS011;39139;53.144;6.244;2023-05-15T05:41:41;43.67;;;31.88;;
51732;SDS011;39139;53.144;6.244;2023-05-15T05:44:07;34.75;;;29.10;;
51732;SDS011;39139;53.144;6.244;2023-05-15T05:46:32;32.28;;;28.77;;
51732;SDS011;39139;53.144;6.244;2023-05-15T05:48:58;34.60;;;28.58;;
51732;SDS011;39139;53.144;6.244;2023-05-15T05:51:24;35.72;;;29.10;;
51732;SDS011;39139;53.144;6.244;2023-05-15T05:53:50;31.25;;;26.83;;
51732;SDS011;39139;53.144;6.244;2023-05-15T05:56:15;30.75;;;24.27;;
51732;SDS011;39139;53.144;6.244;2023-05-15T05:58:41;33.92;;;27.77;;
51732;SDS011;39139;53.144;6.244;2023-05-15T06:01:07;33.25;;;25.95;;
51732;SDS011;39139;53.144;6.244;2023-05-15T06:03:33;30.90;;;27.13;;
51732;SDS011;39139;53.144;6.244;2023-05-15T06:05:59;30.73;;;25.67;;
51732;SDS011;39139;53.144;6.244;2023-05-15T06:08:24;29.27;;;24.33;;
51732;SDS011;39139;53.144;6.244;2023-05-15T06:10:50;27.05;;;24.10;;
51732;SDS011;39139;53.144;6.244;2023-05-15T06:13:16;31.00;;;25.08;;
51732;SDS011;39139;53.144;6.244;2023-05-15T06:15:42;33.25;;;24.30;;
51732;SDS011;39139;53.144;6.244;2023-05-15T06:18:09;26.48;;;23.13;;
51732;SDS011;39139;53.144;6.244;2023-05-15T06:20:35;26.52;;;23.67;;
51732;SDS011;39139;53.144;6.244;2023-05-15T06:23:01;25.50;;;20.83;;
51732;SDS011;39139;53.144;6.244;2023-05-15T06:25:26;24.08;;;21.50;;
51732;SDS011;39139;53.144;6.244;2023-05-15T06:27:52;23.35;;;20.95;;
51732;SDS011;39139;53.144;6.244;2023-05-15T06:30:17;22.05;;;19.83;;
51732;SDS011;39139;53.144;6.244;2023-05-15T06:32:43;23.25;;;20.23;;
51732;SDS011;39139;53.144;6.244;2023-05-15T06:35:09;21.38;;;18.85;;
51732;SDS011;39139;53.144;6.244;2023-05-15T06:37:35;21.30;;;19.10;;
51732;SDS011;39139;53.144;6.244;2023-05-15T06:40:02;24.92;;;20.95;;
51732;SDS011;39139;53.144;6.244;2023-05-15T06:42:28;22.90;;;19.95;;
51732;SDS011;39139;53.144;6.244;2023-05-15T06:44:55;23.02;;;19.58;;
51732;SDS011;39139;53.144;6.244;2023-05-15T06:47:20;21.50;;;19.35;;
51732;SDS011;39139;53.144;6.244;2023-05-15T06:49:46;23.45;;;21.05;;
51732;SDS011;39139;53.144;6.244;2023-05-15T06:52:12;23.20;;;20.70;;
51732;SDS011;39139;53.144;6.244;2023-05-15T06:54:37;24.67;;;19.77;;
51732;SDS011;39139;53.144;6.244;2023-05-15T06:57:05;23.67;;;21.17;;
51732;SDS011;39139;53.144;6.244;2023-05-15T06:59:31;23.60;;;21.02;;
51732;SDS011;39139;53.144;6.244;2023-05-15T07:01:59;27.83;;;21.73;;
51732;SDS011;39139;53.144;6.244;2023-05-15T07:04:25;27.40;;;21.75;;
51732;SDS011;39139;53.144;6.244;2023-05-15T07:06:51;23.83;;;21.33;;
51732;SDS011;39139;53.144;6.244;2023-05-15T07:09:17;24.05;;;21.02;;
51732;SDS011;39139;53.144;6.244;2023-05-15T07:11:43;23.05;;;20.63;;
51732;SDS011;39139;53.144;6.244;2023-05-15T07:14:08;23.30;;;20.60;;
51732;SDS011;39139;53.144;6.244;2023-05-15T07:16:34;21.77;;;19.58;;
51732;SDS011;39139;53.144;6.244;2023-05-15T07:18:59;20.90;;;18.25;;
51732;SDS011;39139;53.144;6.244;2023-05-15T07:21:25;19.27;;;17.27;;
51732;SDS011;39139;53.144;6.244;2023-05-15T07:23:51;23.00;;;18.55;;
51732;SDS011;39139;53.144;6.244;2023-05-15T07:26:16;23.35;;;17.60;;
51732;SDS011;39139;53.144;6.244;2023-05-15T07:28:42;17.10;;;15.30;;
51732;SDS011;39139;53.144;6.244;2023-05-15T07:31:07;15.93;;;14.43;;
51732;SDS011;39139;53.144;6.244;2023-05-15T07:33:33;16.30;;;13.60;;
51732;SDS011;39139;53.144;6.244;2023-05-15T07:35:59;14.18;;;12.68;;
51732;SDS011;39139;53.144;6.244;2023-05-15T07:38:24;16.15;;;14.45;;
51732;SDS011;39139;53.144;6.244;2023-05-15T07:40:50;15.68;;;14.23;;
51732;SDS011;39139;53.144;6.244;2023-05-15T07:43:16;20.65;;;16.42;;
51732;SDS011;39139;53.144;6.244;2023-05-15T07:45:42;19.73;;;14.85;;
51732;SDS011;39139;53.144;6.244;2023-05-15T07:48:17;16.33;;;14.82;;
51732;SDS011;39139;53.144;6.244;2023-05-15T07:50:44;14.30;;;12.82;;
51732;SDS011;39139;53.144;6.244;2023-05-15T07:53:11;16.00;;;13.40;;
51732;SDS011;39139;53.144;6.244;2023-05-15T07:55:37;14.90;;;13.32;;
51732;SDS011;39139;53.144;6.244;2023-05-15T07:58:03;15.60;;;14.10;;
51732;SDS011;39139;53.144;6.244;2023-05-15T08:00:28;16.13;;;14.43;;
51732;SDS011;39139;53.144;6.244;2023-05-15T08:02:54;17.27;;;13.38;;
51732;SDS011;39139;53.144;6.244;2023-05-15T08:05:20;14.32;;;12.93;;
51732;SDS011;39139;53.144;6.244;2023-05-15T08:07:46;13.68;;;12.18;;
51732;SDS011;39139;53.144;6.244;2023-05-15T08:10:11;14.90;;;13.40;;
51732;SDS011;39139;53.144;6.244;2023-05-15T08:12:37;13.32;;;11.88;;
51732;SDS011;39139;53.144;6.244;2023-05-15T08:15:03;12.63;;;11.40;;
51732;SDS011;39139;53.144;6.244;2023-05-15T08:17:28;14.35;;;12.43;;
51732;SDS011;39139;53.144;6.244;2023-05-15T08:19:54;12.88;;;11.60;;
51732;SDS011;39139;53.144;6.244;2023-05-15T08:22:20;13.90;;;12.45;;
51732;SDS011;39139;53.144;6.244;2023-05-15T08:24:46;12.52;;;11.43;;
51732;SDS011;39139;53.144;6.244;2023-05-15T08:27:11;16.23;;;11.88;;
51732;SDS011;39139;53.144;6.244;2023-05-15T08:29:37;12.73;;;11.32;;
51732;SDS011;39139;53.144;6.244;2023-05-15T08:32:04;12.50;;;11.20;;
51732;SDS011;39139;53.144;6.244;2023-05-15T08:34:31;11.73;;;10.60;;
51732;SDS011;39139;53.144;6.244;2023-05-15T08:36:57;11.82;;;10.82;;
51732;SDS011;39139;53.144;6.244;2023-05-15T08:39:23;12.02;;;10.93;;
51732;SDS011;39139;53.144;6.244;2023-05-15T08:41:51;12.07;;;10.82;;
51732;SDS011;39139;53.144;6.244;2023-05-15T08:44:24;12.48;;;11.27;;
51732;SDS011;39139;53.144;6.244;2023-05-15T08:46:51;12.55;;;11.32;;
51732;SDS011;39139;53.144;6.244;2023-05-15T08:52:04;12.20;;;11.15;;
51732;SDS011;39139;53.144;6.244;2023-05-15T08:54:31;13.05;;;11.40;;
51732;SDS011;39139;53.144;6.244;2023-05-15T08:56:57;11.65;;;10.55;;
51732;SDS011;39139;53.144;6.244;2023-05-15T08:59:24;12.52;;;11.32;;
51732;SDS011;39139;53.144;6.244;2023-05-15T09:01:50;12.52;;;11.40;;
51732;SDS011;39139;53.144;6.244;2023-05-15T09:04:16;12.98;;;11.48;;
51732;SDS011;39139;53.144;6.244;2023-05-15T09:06:42;10.65;;;9.65;;
51732;SDS011;39139;53.144;6.244;2023-05-15T09:09:09;11.75;;;10.68;;
51732;SDS011;39139;53.144;6.244;2023-05-15T09:11:38;11.70;;;10.75;;
51732;SDS011;39139;53.144;6.244;2023-05-15T09:14:08;12.07;;;10.98;;
51732;SDS011;39139;53.144;6.244;2023-05-15T09:16:34;11.98;;;10.23;;
51732;SDS011;39139;53.144;6.244;2023-05-15T09:19:01;9.48;;;8.57;;
51732;SDS011;39139;53.144;6.244;2023-05-15T09:21:28;10.23;;;8.48;;
51732;SDS011;39139;53.144;6.244;2023-05-15T09:24:15;9.30;;;8.60;;
51732;SDS011;39139;53.144;6.244;2023-05-15T09:26:49;8.90;;;8.20;;
51732;SDS011;39139;53.144;6.244;2023-05-15T09:29:26;8.18;;;7.63;;
51732;SDS011;39139;53.144;6.244;2023-05-15T09:31:54;9.60;;;8.68;;
51732;SDS011;39139;53.144;6.244;2023-05-15T09:34:33;11.30;;;10.18;;
51732;SDS011;39139;53.144;6.244;2023-05-15T09:37:00;10.68;;;9.77;;
51732;SDS011;39139;53.144;6.244;2023-05-15T09:39:29;10.48;;;9.43;;
51732;SDS011;39139;53.144;6.244;2023-05-15T09:42:13;9.90;;;8.98;;
51732;SDS011;39139;53.144;6.244;2023-05-15T09:44:40;13.55;;;12.23;;
51732;SDS011;39139;53.144;6.244;2023-05-15T09:47:08;18.27;;;13.07;;
51732;SDS011;39139;53.144;6.244;2023-05-15T09:49:34;13.02;;;11.93;;
51732;SDS011;39139;53.144;6.244;2023-05-15T09:52:00;11.18;;;10.15;;
51732;SDS011;39139;53.144;6.244;2023-05-15T09:54:26;13.73;;;12.57;;
51732;SDS011;39139;53.144;6.244;2023-05-15T09:56:54;14.00;;;12.60;;
51732;SDS011;39139;53.144;6.244;2023-05-15T09:59:20;13.20;;;11.55;;
51732;SDS011;39139;53.144;6.244;2023-05-15T10:01:46;13.50;;;12.25;;
51732;SDS011;39139;53.144;6.244;2023-05-15T10:04:13;13.57;;;12.32;;
51732;SDS011;39139;53.144;6.244;2023-05-15T10:06:40;13.98;;;12.63;;
51732;SDS011;39139;53.144;6.244;2023-05-15T10:09:08;13.85;;;12.50;;
51732;SDS011;39139;53.144;6.244;2023-05-15T10:11:38;10.85;;;9.95;;
51732;SDS011;39139;53.144;6.244;2023-05-15T10:14:06;13.32;;;10.93;;
51732;SDS011;39139;53.144;6.244;2023-05-15T10:16:37;11.45;;;10.45;;
51732;SDS011;39139;53.144;6.244;2023-05-15T10:19:04;12.57;;;11.48;;
51732;SDS011;39139;53.144;6.244;2023-05-15T10:21:32;12.55;;;11.25;;
51732;SDS011;39139;53.144;6.244;2023-05-15T10:24:00;12.00;;;10.90;;
51732;SDS011;39139;53.144;6.244;2023-05-15T10:26:42;13.20;;;11.85;;
51732;SDS011;39139;53.144;6.244;2023-05-15T10:29:08;12.80;;;11.35;;
51732;SDS011;39139;53.144;6.244;2023-05-15T10:31:38;10.68;;;9.73;;
51732;SDS011;39139;53.144;6.244;2023-05-15T10:34:04;15.02;;;9.93;;
51732;SDS011;39139;53.144;6.244;2023-05-15T10:36:31;13.27;;;10.90;;
51732;SDS011;39139;53.144;6.244;2023-05-15T10:39:02;12.65;;;10.60;;
51732;SDS011;39139;53.144;6.244;2023-05-15T10:41:30;12.40;;;11.40;;
51732;SDS011;39139;53.144;6.244;2023-05-15T10:43:59;12.30;;;11.18;;
51732;SDS011;39139;53.144;6.244;2023-05-15T10:46:26;13.57;;;12.23;;
51732;SDS011;39139;53.144;6.244;2023-05-15T10:48:53;13.35;;;12.05;;
51732;SDS011;39139;53.144;6.244;2023-05-15T10:53:52;12.95;;;11.63;;
51732;SDS011;39139;53.144;6.244;2023-05-15T10:56:19;12.25;;;11.20;;
51732;SDS011;39139;53.144;6.244;2023-05-15T10:58:46;11.55;;;10.35;;
51732;SDS011;39139;53.144;6.244;2023-05-15T11:01:31;11.63;;;10.00;;
51732;SDS011;39139;53.144;6.244;2023-05-15T11:06:33;9.68;;;8.80;;
51732;SDS011;39139;53.144;6.244;2023-05-15T11:14:20;7.78;;;7.18;;
51732;SDS011;39139;53.144;6.244;2023-05-15T11:19:21;7.72;;;6.82;;
51732;SDS011;39139;53.144;6.244;2023-05-15T11:22:01;8.45;;;7.55;;
51732;SDS011;39139;53.144;6.244;2023-05-15T11:24:31;8.50;;;7.65;;
51732;SDS011;39139;53.144;6.244;2023-05-15T11:27:11;7.72;;;6.90;;
51732;SDS011;39139;53.144;6.244;2023-05-15T11:35:09;7.97;;;6.53;;
51732;SDS011;39139;53.144;6.244;2023-05-15T11:37:44;8.32;;;7.05;;
51732;SDS011;39139;53.144;6.244;2023-05-15T11:40:12;7.30;;;6.70;;
51732;SDS011;39139;53.144;6.244;2023-05-15T11:42:58;7.50;;;6.60;;
51732;SDS011;39139;53.144;6.244;2023-05-15T11:45:41;9.68;;;8.65;;
51732;SDS011;39139;53.144;6.244;2023-05-15T11:48:12;8.80;;;8.10;;
51732;SDS011;39139;53.144;6.244;2023-05-15T11:50:39;7.55;;;6.88;;
51732;SDS011;39139;53.144;6.244;2023-05-15T11:53:07;9.00;;;8.07;;
51732;SDS011;39139;53.144;6.244;2023-05-15T11:55:41;7.55;;;7.05;;
51732;SDS011;39139;53.144;6.244;2023-05-15T11:58:11;8.23;;;7.60;;
51732;SDS011;39139;53.144;6.244;2023-05-15T12:00:44;8.85;;;8.18;;
51732;SDS011;39139;53.144;6.244;2023-05-15T12:05:45;9.68;;;8.75;;
51732;SDS011;39139;53.144;6.244;2023-05-15T12:08:11;10.85;;;8.77;;
51732;SDS011;39139;53.144;6.244;2023-05-15T12:10:43;9.27;;;8.23;;
51732;SDS011;39139;53.144;6.244;2023-05-15T12:13:10;8.57;;;7.78;;
51732;SDS011;39139;53.144;6.244;2023-05-15T12:15:37;8.30;;;7.60;;
51732;SDS011;39139;53.144;6.244;2023-05-15T12:18:04;8.63;;;7.93;;
51732;SDS011;39139;53.144;6.244;2023-05-15T12:20:32;8.40;;;7.18;;
51732;SDS011;39139;53.144;6.244;2023-05-15T12:23:03;7.20;;;6.70;;
51732;SDS011;39139;53.144;6.244;2023-05-15T12:25:30;8.88;;;7.80;;
51732;SDS011;39139;53.144;6.244;2023-05-15T12:27:57;8.05;;;7.18;;
51732;SDS011;39139;53.144;6.244;2023-05-15T12:30:25;7.05;;;6.35;;
51732;SDS011;39139;53.144;6.244;2023-05-15T12:32:51;7.13;;;6.53;;
51732;SDS011;39139;53.144;6.244;2023-05-15T12:35:17;5.95;;;5.53;;
51732;SDS011;39139;53.144;6.244;2023-05-15T12:37:43;5.93;;;5.47;;
51732;SDS011;39139;53.144;6.244;2023-05-15T12:40:09;5.50;;;5.10;;
51732;SDS011;39139;53.144;6.244;2023-05-15T12:42:39;13.25;;;7.05;;
51732;SDS011;39139;53.144;6.244;2023-05-15T12:47:39;6.10;;;5.40;;
51732;SDS011;39139;53.144;6.244;2023-05-15T12:52:55;5.47;;;5.18;;
51732;SDS011;39139;53.144;6.244;2023-05-15T12:55:29;6.63;;;6.03;;
51732;SDS011;39139;53.144;6.244;2023-05-15T12:57:59;6.95;;;6.25;;
51732;SDS011;39139;53.144;6.244;2023-05-15T13:00:36;8.00;;;6.57;;
51732;SDS011;39139;53.144;6.244;2023-05-15T13:03:03;7.30;;;6.70;;
51732;SDS011;39139;53.144;6.244;2023-05-15T13:05:30;8.38;;;7.55;;
51732;SDS011;39139;53.144;6.244;2023-05-15T13:07:58;8.88;;;7.40;;
51732;SDS011;39139;53.144;6.244;2023-05-15T13:10:24;7.57;;;6.97;;
51732;SDS011;39139;53.144;6.244;2023-05-15T13:12:54;8.00;;;7.20;;
51732;SDS011;39139;53.144;6.244;2023-05-15T13:15:36;7.85;;;7.15;;
51732;SDS011;39139;53.144;6.244;2023-05-15T13:18:05;8.95;;;8.05;;
51732;SDS011;39139;53.144;6.244;2023-05-15T13:20:31;8.15;;;7.35;;
51732;SDS011;39139;53.144;6.244;2023-05-15T13:22:59;8.68;;;7.82;;
51732;SDS011;39139;53.144;6.244;2023-05-15T13:25:26;8.93;;;8.13;;
51732;SDS011;39139;53.144;6.244;2023-05-15T13:27:51;8.30;;;7.57;;
51732;SDS011;39139;53.144;6.244;2023-05-15T13:30:17;8.32;;;7.63;;
51732;SDS011;39139;53.144;6.244;2023-05-15T13:32:43;9.05;;;7.32;;
51732;SDS011;39139;53.144;6.244;2023-05-15T13:35:09;8.80;;;8.00;;
51732;SDS011;39139;53.144;6.244;2023-05-15T13:37:36;8.23;;;7.50;;
51732;SDS011;39139;53.144;6.244;2023-05-15T13:40:02;7.20;;;6.60;;
51732;SDS011;39139;53.144;6.244;2023-05-15T13:42:31;8.25;;;7.45;;
51732;SDS011;39139;53.144;6.244;2023-05-15T13:44:56;9.10;;;8.30;;
51732;SDS011;39139;53.144;6.244;2023-05-15T13:47:22;9.35;;;8.45;;
51732;SDS011;39139;53.144;6.244;2023-05-15T13:49:48;9.23;;;8.48;;
51732;SDS011;39139;53.144;6.244;2023-05-15T13:52:13;9.80;;;8.98;;
51732;SDS011;39139;53.144;6.244;2023-05-15T13:54:39;9.75;;;8.85;;
51732;SDS011;39139;53.144;6.244;2023-05-15T13:57:05;9.80;;;8.80;;
51732;SDS011;39139;53.144;6.244;2023-05-15T13:59:31;9.93;;;9.05;;
51732;SDS011;39139;53.144;6.244;2023-05-15T14:01:56;9.90;;;8.98;;
51732;SDS011;39139;53.144;6.244;2023-05-15T14:04:22;10.32;;;9.15;;
51732;SDS011;39139;53.144;6.244;2023-05-15T14:06:48;10.68;;;9.05;;
51732;SDS011;39139;53.144;6.244;2023-05-15T14:09:13;10.45;;;9.55;;
51732;SDS011;39139;53.144;6.244;2023-05-15T14:11:39;10.30;;;9.30;;
51732;SDS011;39139;53.144;6.244;2023-05-15T14:14:05;10.18;;;8.98;;
51732;SDS011;39139;53.144;6.244;2023-05-15T14:16:31;9.52;;;8.55;;
51732;SDS011;39139;53.144;6.244;2023-05-15T14:18:57;10.40;;;9.48;;
51732;SDS011;39139;53.144;6.244;2023-05-15T14:21:22;10.27;;;9.27;;
51732;SDS011;39139;53.144;6.244;2023-05-15T14:23:48;10.68;;;9.65;;
51732;SDS011;39139;53.144;6.244;2023-05-15T14:26:14;9.85;;;8.90;;
51732;SDS011;39139;53.144;6.244;2023-05-15T14:28:40;9.55;;;8.25;;
51732;SDS011;39139;53.144;6.244;2023-05-15T14:31:05;11.07;;;10.27;;
51732;SDS011;39139;53.144;6.244;2023-05-15T14:33:31;11.25;;;10.20;;
51732;SDS011;39139;53.144;6.244;2023-05-15T14:35:57;11.10;;;9.80;;
51732;SDS011;39139;53.144;6.244;2023-05-15T14:38:23;10.70;;;9.00;;
51732;SDS011;39139;53.144;6.244;2023-05-15T14:40:48;9.23;;;8.25;;
51732;SDS011;39139;53.144;6.244;2023-05-15T14:43:14;10.98;;;9.27;;
51732;SDS011;39139;53.144;6.244;2023-05-15T14:45:40;9.35;;;8.45;;
51732;SDS011;39139;53.144;6.244;2023-05-15T14:48:05;9.50;;;8.68;;
51732;SDS011;39139;53.144;6.244;2023-05-15T14:50:31;8.63;;;7.93;;
51732;SDS011;39139;53.144;6.244;2023-05-15T14:52:56;11.60;;;9.43;;
51732;SDS011;39139;53.144;6.244;2023-05-15T14:55:22;11.40;;;10.25;;
51732;SDS011;39139;53.144;6.244;2023-05-15T14:57:48;11.18;;;10.10;;
51732;SDS011;39139;53.144;6.244;2023-05-15T15:00:14;11.80;;;10.70;;
51732;SDS011;39139;53.144;6.244;2023-05-15T15:02:43;10.32;;;9.32;;
51732;SDS011;39139;53.144;6.244;2023-05-15T15:05:10;12.05;;;10.48;;
51732;SDS011;39139;53.144;6.244;2023-05-15T15:10:34;11.75;;;9.45;;
51732;SDS011;39139;53.144;6.244;2023-05-15T15:13:01;9.25;;;8.38;;
51732;SDS011;39139;53.144;6.244;2023-05-15T15:15:27;8.48;;;7.65;;
51732;SDS011;39139;53.144;6.244;2023-05-15T15:17:54;9.00;;;7.57;;
51732;SDS011;39139;53.144;6.244;2023-05-15T15:20:21;10.20;;;9.30;;
51732;SDS011;39139;53.144;6.244;2023-05-15T15:22:49;9.75;;;8.60;;